sensor_id;sensor_type;location;lat;lon;timestamp;P1;durP1;ratioP1;P2;durP2;ratioP2
69569;SDS011;56781;42.292;23.146;2022-07-29T00:01:39;12.88;;;6.70;;
69569;SDS011;56781;42.292;23.146;2022-07-29T00:04:05;16.10;;;7.97;;
69569;SDS011;56781;42.292;23.146;2022-07-29T00:06:32;15.70;;;7.63;;
69569;SDS011;56781;42.292;23.146;2022-07-29T00:08:59;13.50;;;7.43;;
69569;SDS011;56781;42.292;23.146;2022-07-29T00:11:26;14.82;;;7.10;;
69569;SDS011;56781;42.292;23.146;2022-07-29T00:13:53;14.27;;;7.72;;
69569;SDS011;56781;42.292;23.146;2022-07-29T00:16:20;13.37;;;7.53;;
69569;SDS011;56781;42.292;23.146;2022-07-29T00:18:47;15.65;;;7.28;;
69569;SDS011;56781;42.292;23.146;2022-07-29T00:21:14;14.90;;;7.65;;
69569;SDS011;56781;42.292;23.146;2022-07-29T00:23:40;13.00;;;6.97;;
69569;SDS011;56781;42.292;23.146;2022-07-29T00:26:08;15.82;;;7.40;;
69569;SDS011;56781;42.292;23.146;2022-07-29T00:28:34;16.47;;;7.13;;
69569;SDS011;56781;42.292;23.146;2022-07-29T00:31:01;15.45;;;7.60;;
69569;SDS011;56781;42.292;23.146;2022-07-29T00:33:29;14.82;;;8.30;;
69569;SDS011;56781;42.292;23.146;2022-07-29T00:35:56;14.85;;;8.50;;
69569;SDS011;56781;42.292;23.146;2022-07-29T00:38:23;15.48;;;8.35;;
69569;SDS011;56781;42.292;23.146;2022-07-29T00:40:51;16.57;;;8.80;;
69569;SDS011;56781;42.292;23.146;2022-07-29T00:43:18;14.68;;;7.93;;
69569;SDS011;56781;42.292;23.146;2022-07-29T00:45:45;15.65;;;8.20;;
69569;SDS011;56781;42.292;23.146;2022-07-29T00:48:12;14.18;;;7.45;;
69569;SDS011;56781;42.292;23.146;2022-07-29T00:50:40;13.55;;;7.40;;
69569;SDS011;56781;42.292;23.146;2022-07-29T00:53:07;13.20;;;7.00;;
69569;SDS011;56781;42.292;23.146;2022-07-29T00:55:36;14.02;;;7.57;;
69569;SDS011;56781;42.292;23.146;2022-07-29T00:58:03;12.98;;;7.30;;
69569;SDS011;56781;42.292;23.146;2022-07-29T01:00:31;15.60;;;7.63;;
69569;SDS011;56781;42.292;23.146;2022-07-29T01:02:58;15.48;;;6.78;;
69569;SDS011;56781;42.292;23.146;2022-07-29T01:05:25;11.50;;;6.60;;
69569;SDS011;56781;42.292;23.146;2022-07-29T01:08:14;12.82;;;6.97;;
69569;SDS011;56781;42.292;23.146;2022-07-29T01:10:42;11.65;;;6.88;;
69569;SDS011;56781;42.292;23.146;2022-07-29T01:13:12;15.32;;;7.20;;
69569;SDS011;56781;42.292;23.146;2022-07-29T01:15:49;11.77;;;6.65;;
69569;SDS011;56781;42.292;23.146;2022-07-29T01:18:27;15.97;;;6.97;;
69569;SDS011;56781;42.292;23.146;2022-07-29T01:29:45;19.20;;;6.75;;
69569;SDS011;56781;42.292;23.146;2022-07-29T01:32:22;14.87;;;6.93;;
69569;SDS011;56781;42.292;23.146;2022-07-29T01:35:15;13.80;;;6.75;;
69569;SDS011;56781;42.292;23.146;2022-07-29T01:37:57;13.13;;;7.40;;
69569;SDS011;56781;42.292;23.146;2022-07-29T01:40:45;18.80;;;7.28;;
69569;SDS011;56781;42.292;23.146;2022-07-29T01:43:19;13.15;;;7.05;;
69569;SDS011;56781;42.292;23.146;2022-07-29T01:45:51;17.10;;;7.53;;
69569;SDS011;56781;42.292;23.146;2022-07-29T01:48:27;15.45;;;7.38;;
69569;SDS011;56781;42.292;23.146;2022-07-29T01:56:48;12.90;;;6.90;;
69569;SDS011;56781;42.292;23.146;2022-07-29T01:59:18;15.93;;;7.57;;
69569;SDS011;56781;42.292;23.146;2022-07-29T02:01:48;16.63;;;7.63;;
69569;SDS011;56781;42.292;23.146;2022-07-29T02:04:20;14.77;;;7.43;;
69569;SDS011;56781;42.292;23.146;2022-07-29T02:06:55;12.43;;;7.38;;
69569;SDS011;56781;42.292;23.146;2022-07-29T02:09:29;13.32;;;6.90;;
69569;SDS011;56781;42.292;23.146;2022-07-29T02:11:57;15.17;;;7.20;;
69569;SDS011;56781;42.292;23.146;2022-07-29T02:14:28;12.77;;;6.80;;
69569;SDS011;56781;42.292;23.146;2022-07-29T02:17:02;15.15;;;7.95;;
69569;SDS011;56781;42.292;23.146;2022-07-29T02:19:30;19.80;;;7.18;;
69569;SDS011;56781;42.292;23.146;2022-07-29T02:21:59;13.15;;;7.05;;
69569;SDS011;56781;42.292;23.146;2022-07-29T02:24:27;14.53;;;6.60;;
69569;SDS011;56781;42.292;23.146;2022-07-29T02:27:06;10.70;;;6.38;;
69569;SDS011;56781;42.292;23.146;2022-07-29T02:29:34;14.68;;;7.53;;
69569;SDS011;56781;42.292;23.146;2022-07-29T02:32:03;14.63;;;7.30;;
69569;SDS011;56781;42.292;23.146;2022-07-29T02:34:33;17.05;;;8.23;;
69569;SDS011;56781;42.292;23.146;2022-07-29T02:37:01;16.37;;;8.47;;
69569;SDS011;56781;42.292;23.146;2022-07-29T02:39:32;12.73;;;6.63;;
69569;SDS011;56781;42.292;23.146;2022-07-29T02:42:08;11.93;;;6.43;;
69569;SDS011;56781;42.292;23.146;2022-07-29T02:44:40;14.48;;;7.45;;
69569;SDS011;56781;42.292;23.146;2022-07-29T02:50:06;16.93;;;7.77;;
69569;SDS011;56781;42.292;23.146;2022-07-29T02:52:42;11.40;;;6.40;;
69569;SDS011;56781;42.292;23.146;2022-07-29T02:55:16;13.00;;;6.72;;
69569;SDS011;56781;42.292;23.146;2022-07-29T02:58:39;15.63;;;7.68;;
69569;SDS011;56781;42.292;23.146;2022-07-29T03:01:04;12.82;;;6.93;;
69569;SDS011;56781;42.292;23.146;2022-07-29T03:03:48;10.60;;;6.30;;
69569;SDS011;56781;42.292;23.146;2022-07-29T03:06:17;13.77;;;6.88;;
69569;SDS011;56781;42.292;23.146;2022-07-29T03:09:03;13.85;;;6.82;;
69569;SDS011;56781;42.292;23.146;2022-07-29T03:11:38;11.50;;;5.88;;
69569;SDS011;56781;42.292;23.146;2022-07-29T03:14:19;13.98;;;6.70;;
69569;SDS011;56781;42.292;23.146;2022-07-29T03:16:49;9.30;;;4.93;;
69569;SDS011;56781;42.292;23.146;2022-07-29T03:19:17;12.80;;;5.82;;
69569;SDS011;56781;42.292;23.146;2022-07-29T03:21:46;12.05;;;6.38;;
69569;SDS011;56781;42.292;23.146;2022-07-29T03:24:27;11.20;;;5.93;;
69569;SDS011;56781;42.292;23.146;2022-07-29T03:26:55;13.90;;;6.13;;
69569;SDS011;56781;42.292;23.146;2022-07-29T03:29:23;16.20;;;6.07;;
69569;SDS011;56781;42.292;23.146;2022-07-29T03:31:58;15.98;;;6.93;;
69569;SDS011;56781;42.292;23.146;2022-07-29T03:34:27;15.23;;;6.40;;
69569;SDS011;56781;42.292;23.146;2022-07-29T03:37:00;14.25;;;5.95;;
69569;SDS011;56781;42.292;23.146;2022-07-29T03:39:28;12.75;;;6.38;;
69569;SDS011;56781;42.292;23.146;2022-07-29T03:41:57;15.80;;;6.83;;
69569;SDS011;56781;42.292;23.146;2022-07-29T03:44:26;11.43;;;6.13;;
69569;SDS011;56781;42.292;23.146;2022-07-29T03:46:57;12.65;;;6.15;;
69569;SDS011;56781;42.292;23.146;2022-07-29T03:49:28;13.43;;;5.75;;
69569;SDS011;56781;42.292;23.146;2022-07-29T03:52:00;12.85;;;6.00;;
69569;SDS011;56781;42.292;23.146;2022-07-29T03:54:28;12.10;;;6.33;;
69569;SDS011;56781;42.292;23.146;2022-07-29T03:56:55;11.10;;;6.07;;
69569;SDS011;56781;42.292;23.146;2022-07-29T03:59:32;11.68;;;6.50;;
69569;SDS011;56781;42.292;23.146;2022-07-29T04:02:02;15.07;;;6.85;;
69569;SDS011;56781;42.292;23.146;2022-07-29T04:04:34;11.57;;;5.65;;
69569;SDS011;56781;42.292;23.146;2022-07-29T04:07:02;11.67;;;5.80;;
69569;SDS011;56781;42.292;23.146;2022-07-29T04:09:31;10.48;;;6.07;;
69569;SDS011;56781;42.292;23.146;2022-07-29T04:11:59;11.18;;;6.00;;
69569;SDS011;56781;42.292;23.146;2022-07-29T04:14:29;17.05;;;7.30;;
69569;SDS011;56781;42.292;23.146;2022-07-29T04:16:57;11.98;;;6.30;;
69569;SDS011;56781;42.292;23.146;2022-07-29T04:19:24;14.13;;;6.77;;
69569;SDS011;56781;42.292;23.146;2022-07-29T04:21:51;13.27;;;7.65;;
69569;SDS011;56781;42.292;23.146;2022-07-29T04:24:18;14.02;;;7.28;;
69569;SDS011;56781;42.292;23.146;2022-07-29T04:26:45;15.13;;;7.80;;
69569;SDS011;56781;42.292;23.146;2022-07-29T04:29:13;16.90;;;8.00;;
69569;SDS011;56781;42.292;23.146;2022-07-29T04:31:41;13.73;;;7.40;;
69569;SDS011;56781;42.292;23.146;2022-07-29T04:34:09;14.20;;;7.97;;
69569;SDS011;56781;42.292;23.146;2022-07-29T04:36:36;12.25;;;6.95;;
69569;SDS011;56781;42.292;23.146;2022-07-29T04:39:03;15.75;;;8.63;;
69569;SDS011;56781;42.292;23.146;2022-07-29T04:41:30;15.32;;;7.78;;
69569;SDS011;56781;42.292;23.146;2022-07-29T04:43:59;15.80;;;8.67;;
69569;SDS011;56781;42.292;23.146;2022-07-29T04:46:34;14.88;;;8.20;;
69569;SDS011;56781;42.292;23.146;2022-07-29T04:49:02;17.20;;;8.02;;
69569;SDS011;56781;42.292;23.146;2022-07-29T04:51:31;15.93;;;7.95;;
69569;SDS011;56781;42.292;23.146;2022-07-29T04:53:58;17.73;;;8.48;;
69569;SDS011;56781;42.292;23.146;2022-07-29T04:56:25;15.27;;;7.60;;
69569;SDS011;56781;42.292;23.146;2022-07-29T04:58:52;16.98;;;9.25;;
69569;SDS011;56781;42.292;23.146;2022-07-29T05:01:19;16.67;;;7.78;;
69569;SDS011;56781;42.292;23.146;2022-07-29T05:03:46;15.75;;;8.23;;
69569;SDS011;56781;42.292;23.146;2022-07-29T05:06:13;15.10;;;8.18;;
69569;SDS011;56781;42.292;23.146;2022-07-29T05:08:40;16.17;;;8.43;;
69569;SDS011;56781;42.292;23.146;2022-07-29T05:11:07;14.60;;;7.30;;
69569;SDS011;56781;42.292;23.146;2022-07-29T05:13:37;16.73;;;7.55;;
69569;SDS011;56781;42.292;23.146;2022-07-29T05:16:12;15.38;;;7.88;;
69569;SDS011;56781;42.292;23.146;2022-07-29T05:18:40;16.58;;;8.27;;
69569;SDS011;56781;42.292;23.146;2022-07-29T05:21:07;16.00;;;8.53;;
69569;SDS011;56781;42.292;23.146;2022-07-29T05:23:34;14.68;;;8.05;;
69569;SDS011;56781;42.292;23.146;2022-07-29T05:26:00;14.05;;;8.00;;
69569;SDS011;56781;42.292;23.146;2022-07-29T05:28:32;14.95;;;7.93;;
69569;SDS011;56781;42.292;23.146;2022-07-29T05:31:03;13.77;;;7.93;;
69569;SDS011;56781;42.292;23.146;2022-07-29T05:33:30;15.83;;;7.53;;
69569;SDS011;56781;42.292;23.146;2022-07-29T05:36:01;17.65;;;8.60;;
69569;SDS011;56781;42.292;23.146;2022-07-29T05:38:28;15.15;;;7.70;;
69569;SDS011;56781;42.292;23.146;2022-07-29T05:40:58;14.77;;;7.60;;
69569;SDS011;56781;42.292;23.146;2022-07-29T05:43:26;13.30;;;7.70;;
69569;SDS011;56781;42.292;23.146;2022-07-29T05:45:54;14.93;;;7.57;;
69569;SDS011;56781;42.292;23.146;2022-07-29T05:48:23;16.20;;;7.47;;
69569;SDS011;56781;42.292;23.146;2022-07-29T05:50:50;18.05;;;8.70;;
69569;SDS011;56781;42.292;23.146;2022-07-29T05:53:17;13.32;;;7.72;;
69569;SDS011;56781;42.292;23.146;2022-07-29T05:55:46;13.18;;;7.97;;
69569;SDS011;56781;42.292;23.146;2022-07-29T05:58:14;15.37;;;7.70;;
69569;SDS011;56781;42.292;23.146;2022-07-29T06:00:41;13.60;;;7.95;;
69569;SDS011;56781;42.292;23.146;2022-07-29T06:03:08;14.25;;;8.25;;
69569;SDS011;56781;42.292;23.146;2022-07-29T06:05:35;13.90;;;7.35;;
69569;SDS011;56781;42.292;23.146;2022-07-29T06:08:02;15.32;;;7.80;;
69569;SDS011;56781;42.292;23.146;2022-07-29T06:10:32;15.77;;;7.90;;
69569;SDS011;56781;42.292;23.146;2022-07-29T06:13:00;27.05;;;14.18;;
69569;SDS011;56781;42.292;23.146;2022-07-29T06:15:29;15.13;;;8.02;;
69569;SDS011;56781;42.292;23.146;2022-07-29T06:17:58;14.60;;;8.13;;
69569;SDS011;56781;42.292;23.146;2022-07-29T06:20:30;13.38;;;7.75;;
69569;SDS011;56781;42.292;23.146;2022-07-29T06:22:58;15.03;;;8.03;;
69569;SDS011;56781;42.292;23.146;2022-07-29T06:25:26;13.80;;;7.80;;
69569;SDS011;56781;42.292;23.146;2022-07-29T06:27:55;14.15;;;7.88;;
69569;SDS011;56781;42.292;23.146;2022-07-29T06:30:23;17.25;;;7.85;;
69569;SDS011;56781;42.292;23.146;2022-07-29T06:32:50;13.25;;;7.82;;
69569;SDS011;56781;42.292;23.146;2022-07-29T06:35:18;14.20;;;7.90;;
69569;SDS011;56781;42.292;23.146;2022-07-29T06:38:07;10.70;;;6.53;;
69569;SDS011;56781;42.292;23.146;2022-07-29T06:40:54;10.95;;;6.72;;
69569;SDS011;56781;42.292;23.146;2022-07-29T06:43:29;12.55;;;7.25;;
69569;SDS011;56781;42.292;23.146;2022-07-29T06:46:00;11.90;;;7.03;;
69569;SDS011;56781;42.292;23.146;2022-07-29T06:48:28;13.77;;;6.90;;
69569;SDS011;56781;42.292;23.146;2022-07-29T06:50:55;13.05;;;7.38;;
69569;SDS011;56781;42.292;23.146;2022-07-29T06:53:22;12.85;;;7.38;;
69569;SDS011;56781;42.292;23.146;2022-07-29T06:55:49;13.07;;;7.20;;
69569;SDS011;56781;42.292;23.146;2022-07-29T06:58:16;14.38;;;7.40;;
69569;SDS011;56781;42.292;23.146;2022-07-29T07:00:47;14.50;;;7.43;;
69569;SDS011;56781;42.292;23.146;2022-07-29T07:03:14;13.27;;;7.47;;
69569;SDS011;56781;42.292;23.146;2022-07-29T07:05:42;15.27;;;8.05;;
69569;SDS011;56781;42.292;23.146;2022-07-29T07:08:09;13.57;;;7.90;;
69569;SDS011;56781;42.292;23.146;2022-07-29T07:10:36;13.90;;;8.20;;
69569;SDS011;56781;42.292;23.146;2022-07-29T07:13:04;14.23;;;7.57;;
69569;SDS011;56781;42.292;23.146;2022-07-29T07:15:32;13.98;;;8.02;;
69569;SDS011;56781;42.292;23.146;2022-07-29T07:18:05;14.25;;;8.05;;
69569;SDS011;56781;42.292;23.146;2022-07-29T07:20:33;16.98;;;9.07;;
69569;SDS011;56781;42.292;23.146;2022-07-29T07:23:03;13.35;;;8.07;;
69569;SDS011;56781;42.292;23.146;2022-07-29T07:25:30;12.20;;;6.93;;
69569;SDS011;56781;42.292;23.146;2022-07-29T07:27:58;13.05;;;8.05;;
69569;SDS011;56781;42.292;23.146;2022-07-29T07:30:28;12.82;;;7.78;;
69569;SDS011;56781;42.292;23.146;2022-07-29T07:32:56;12.57;;;7.55;;
69569;SDS011;56781;42.292;23.146;2022-07-29T07:35:23;11.93;;;7.10;;
69569;SDS011;56781;42.292;23.146;2022-07-29T07:37:53;12.37;;;7.80;;
69569;SDS011;56781;42.292;23.146;2022-07-29T07:40:20;12.82;;;7.03;;
69569;SDS011;56781;42.292;23.146;2022-07-29T07:42:48;12.00;;;7.28;;
69569;SDS011;56781;42.292;23.146;2022-07-29T07:45:15;11.75;;;7.03;;
69569;SDS011;56781;42.292;23.146;2022-07-29T07:47:44;12.35;;;7.75;;
69569;SDS011;56781;42.292;23.146;2022-07-29T07:50:11;12.50;;;7.70;;
69569;SDS011;56781;42.292;23.146;2022-07-29T07:52:48;12.52;;;7.38;;
69569;SDS011;56781;42.292;23.146;2022-07-29T07:55:19;13.07;;;7.50;;
69569;SDS011;56781;42.292;23.146;2022-07-29T07:57:46;11.73;;;7.03;;
69569;SDS011;56781;42.292;23.146;2022-07-29T08:00:14;11.73;;;7.03;;
69569;SDS011;56781;42.292;23.146;2022-07-29T08:02:43;11.87;;;7.10;;
69569;SDS011;56781;42.292;23.146;2022-07-29T08:05:11;12.65;;;7.00;;
69569;SDS011;56781;42.292;23.146;2022-07-29T08:07:43;11.95;;;7.07;;
69569;SDS011;56781;42.292;23.146;2022-07-29T08:10:12;11.80;;;7.50;;
69569;SDS011;56781;42.292;23.146;2022-07-29T08:13:05;10.32;;;6.68;;
69569;SDS011;56781;42.292;23.146;2022-07-29T08:15:35;11.33;;;6.93;;
69569;SDS011;56781;42.292;23.146;2022-07-29T08:18:02;11.23;;;7.30;;
69569;SDS011;56781;42.292;23.146;2022-07-29T08:20:34;13.32;;;7.30;;
69569;SDS011;56781;42.292;23.146;2022-07-29T08:23:02;11.07;;;7.20;;
69569;SDS011;56781;42.292;23.146;2022-07-29T08:25:29;10.82;;;6.90;;
69569;SDS011;56781;42.292;23.146;2022-07-29T08:27:56;11.93;;;6.47;;
69569;SDS011;56781;42.292;23.146;2022-07-29T08:30:23;11.00;;;7.03;;
69569;SDS011;56781;42.292;23.146;2022-07-29T08:32:49;14.70;;;6.63;;
69569;SDS011;56781;42.292;23.146;2022-07-29T08:35:21;10.93;;;6.72;;
69569;SDS011;56781;42.292;23.146;2022-07-29T08:37:48;12.32;;;7.35;;
69569;SDS011;56781;42.292;23.146;2022-07-29T08:40:15;9.90;;;6.53;;
69569;SDS011;56781;42.292;23.146;2022-07-29T08:42:43;10.40;;;6.78;;
69569;SDS011;56781;42.292;23.146;2022-07-29T08:45:10;10.05;;;6.78;;
69569;SDS011;56781;42.292;23.146;2022-07-29T08:47:40;11.30;;;6.80;;
69569;SDS011;56781;42.292;23.146;2022-07-29T08:50:08;9.82;;;6.70;;
69569;SDS011;56781;42.292;23.146;2022-07-29T08:52:37;11.40;;;6.67;;
69569;SDS011;56781;42.292;23.146;2022-07-29T08:55:05;9.50;;;6.55;;
69569;SDS011;56781;42.292;23.146;2022-07-29T08:57:34;9.90;;;6.57;;
69569;SDS011;56781;42.292;23.146;2022-07-29T09:00:06;10.10;;;6.45;;
69569;SDS011;56781;42.292;23.146;2022-07-29T09:02:40;11.25;;;7.28;;
69569;SDS011;56781;42.292;23.146;2022-07-29T09:05:12;10.53;;;6.97;;
69569;SDS011;56781;42.292;23.146;2022-07-29T09:07:39;10.73;;;6.93;;
69569;SDS011;56781;42.292;23.146;2022-07-29T09:10:08;11.90;;;6.63;;
69569;SDS011;56781;42.292;23.146;2022-07-29T09:12:35;10.38;;;6.95;;
69569;SDS011;56781;42.292;23.146;2022-07-29T09:15:11;9.52;;;6.53;;
69569;SDS011;56781;42.292;23.146;2022-07-29T09:17:42;11.00;;;7.20;;
69569;SDS011;56781;42.292;23.146;2022-07-29T09:20:11;11.15;;;6.85;;
69569;SDS011;56781;42.292;23.146;2022-07-29T09:22:43;10.90;;;6.93;;
69569;SDS011;56781;42.292;23.146;2022-07-29T09:25:13;9.27;;;6.43;;
69569;SDS011;56781;42.292;23.146;2022-07-29T09:27:40;10.48;;;6.95;;
69569;SDS011;56781;42.292;23.146;2022-07-29T09:30:08;10.60;;;7.27;;
69569;SDS011;56781;42.292;23.146;2022-07-29T09:32:54;9.52;;;6.70;;
69569;SDS011;56781;42.292;23.146;2022-07-29T09:35:25;11.68;;;6.75;;
69569;SDS011;56781;42.292;23.146;2022-07-29T09:38:13;11.13;;;7.00;;
69569;SDS011;56781;42.292;23.146;2022-07-29T09:40:40;10.65;;;7.22;;
69569;SDS011;56781;42.292;23.146;2022-07-29T09:43:10;9.73;;;6.20;;
69569;SDS011;56781;42.292;23.146;2022-07-29T09:45:39;11.95;;;6.13;;
69569;SDS011;56781;42.292;23.146;2022-07-29T09:48:17;11.13;;;6.50;;
69569;SDS011;56781;42.292;23.146;2022-07-29T09:50:46;10.73;;;6.93;;
69569;SDS011;56781;42.292;23.146;2022-07-29T09:53:32;12.77;;;6.55;;
69569;SDS011;56781;42.292;23.146;2022-07-29T09:56:00;9.03;;;6.07;;
69569;SDS011;56781;42.292;23.146;2022-07-29T09:58:27;9.63;;;6.20;;
69569;SDS011;56781;42.292;23.146;2022-07-29T10:00:54;9.45;;;6.50;;
69569;SDS011;56781;42.292;23.146;2022-07-29T10:03:22;10.38;;;6.47;;
69569;SDS011;56781;42.292;23.146;2022-07-29T10:06:10;11.10;;;6.70;;
69569;SDS011;56781;42.292;23.146;2022-07-29T10:08:38;9.60;;;6.17;;
69569;SDS011;56781;42.292;23.146;2022-07-29T10:13:38;9.00;;;6.07;;
69569;SDS011;56781;42.292;23.146;2022-07-29T10:16:07;9.82;;;6.55;;
69569;SDS011;56781;42.292;23.146;2022-07-29T10:18:34;9.02;;;6.25;;
69569;SDS011;56781;42.292;23.146;2022-07-29T10:21:01;9.77;;;6.07;;
69569;SDS011;56781;42.292;23.146;2022-07-29T10:23:29;10.00;;;6.30;;
69569;SDS011;56781;42.292;23.146;2022-07-29T10:26:12;10.40;;;5.97;;
69569;SDS011;56781;42.292;23.146;2022-07-29T10:28:40;8.57;;;5.78;;
69569;SDS011;56781;42.292;23.146;2022-07-29T10:31:08;9.23;;;6.07;;
69569;SDS011;56781;42.292;23.146;2022-07-29T10:42:22;10.73;;;5.78;;
69569;SDS011;56781;42.292;23.146;2022-07-29T10:44:59;7.97;;;5.65;;
69569;SDS011;56781;42.292;23.146;2022-07-29T10:47:27;7.47;;;5.27;;
69569;SDS011;56781;42.292;23.146;2022-07-29T10:49:57;7.30;;;5.20;;
69569;SDS011;56781;42.292;23.146;2022-07-29T10:58:18;7.90;;;5.30;;
69569;SDS011;56781;42.292;23.146;2022-07-29T11:00:48;8.63;;;5.83;;
69569;SDS011;56781;42.292;23.146;2022-07-29T11:03:42;9.30;;;5.32;;
69569;SDS011;56781;42.292;23.146;2022-07-29T11:06:15;9.40;;;5.10;;
69569;SDS011;56781;42.292;23.146;2022-07-29T11:12:00;8.50;;;5.68;;
69569;SDS011;56781;42.292;23.146;2022-07-29T11:17:18;9.15;;;5.50;;
69569;SDS011;56781;42.292;23.146;2022-07-29T11:19:46;9.60;;;5.43;;
69569;SDS011;56781;42.292;23.146;2022-07-29T11:22:33;7.75;;;5.45;;
69569;SDS011;56781;42.292;23.146;2022-07-29T11:25:35;7.93;;;5.22;;
69569;SDS011;56781;42.292;23.146;2022-07-29T11:28:19;8.83;;;5.97;;
69569;SDS011;56781;42.292;23.146;2022-07-29T11:30:51;9.95;;;5.55;;
69569;SDS011;56781;42.292;23.146;2022-07-29T11:33:27;8.40;;;5.28;;
69569;SDS011;56781;42.292;23.146;2022-07-29T11:36:15;7.97;;;5.32;;
69569;SDS011;56781;42.292;23.146;2022-07-29T11:38:42;7.97;;;5.30;;
69569;SDS011;56781;42.292;23.146;2022-07-29T11:41:22;9.90;;;6.00;;
69569;SDS011;56781;42.292;23.146;2022-07-29T11:43:55;7.70;;;5.25;;
69569;SDS011;56781;42.292;23.146;2022-07-29T11:49:23;8.57;;;5.22;;
69569;SDS011;56781;42.292;23.146;2022-07-29T11:51:58;8.25;;;5.72;;
69569;SDS011;56781;42.292;23.146;2022-07-29T11:54:31;9.53;;;5.60;;
69569;SDS011;56781;42.292;23.146;2022-07-29T11:57:19;8.93;;;5.72;;
69569;SDS011;56781;42.292;23.146;2022-07-29T11:59:47;8.35;;;5.70;;
69569;SDS011;56781;42.292;23.146;2022-07-29T12:02:16;8.85;;;5.90;;
69569;SDS011;56781;42.292;23.146;2022-07-29T12:05:03;8.70;;;5.65;;
69569;SDS011;56781;42.292;23.146;2022-07-29T12:07:36;9.00;;;5.77;;
69569;SDS011;56781;42.292;23.146;2022-07-29T12:10:05;8.45;;;5.78;;
69569;SDS011;56781;42.292;23.146;2022-07-29T12:12:36;8.70;;;6.03;;
69569;SDS011;56781;42.292;23.146;2022-07-29T12:15:17;10.05;;;6.35;;
69569;SDS011;56781;42.292;23.146;2022-07-29T12:17:47;9.63;;;6.18;;
69569;SDS011;56781;42.292;23.146;2022-07-29T12:20:24;9.10;;;6.50;;
69569;SDS011;56781;42.292;23.146;2022-07-29T12:22:54;9.63;;;6.20;;
69569;SDS011;56781;42.292;23.146;2022-07-29T12:25:22;10.32;;;6.18;;
69569;SDS011;56781;42.292;23.146;2022-07-29T12:28:00;8.90;;;6.30;;
69569;SDS011;56781;42.292;23.146;2022-07-29T12:30:34;9.65;;;6.25;;
69569;SDS011;56781;42.292;23.146;2022-07-29T12:33:25;9.93;;;6.90;;
69569;SDS011;56781;42.292;23.146;2022-07-29T12:35:58;11.30;;;5.72;;
69569;SDS011;56781;42.292;23.146;2022-07-29T12:38:43;8.32;;;6.18;;
69569;SDS011;56781;42.292;23.146;2022-07-29T12:41:10;8.98;;;6.13;;
69569;SDS011;56781;42.292;23.146;2022-07-29T12:43:45;8.07;;;5.80;;
69569;SDS011;56781;42.292;23.146;2022-07-29T12:46:20;8.70;;;5.77;;
69569;SDS011;56781;42.292;23.146;2022-07-29T12:48:50;9.13;;;5.72;;
69569;SDS011;56781;42.292;23.146;2022-07-29T12:51:30;8.10;;;5.28;;
69569;SDS011;56781;42.292;23.146;2022-07-29T12:54:05;9.25;;;5.68;;
69569;SDS011;56781;42.292;23.146;2022-07-29T12:56:34;8.63;;;6.00;;
69569;SDS011;56781;42.292;23.146;2022-07-29T12:59:20;8.40;;;5.80;;
69569;SDS011;56781;42.292;23.146;2022-07-29T13:01:52;8.27;;;5.20;;
69569;SDS011;56781;42.292;23.146;2022-07-29T13:07:03;9.02;;;5.97;;
69569;SDS011;56781;42.292;23.146;2022-07-29T13:09:44;7.70;;;5.25;;
69569;SDS011;56781;42.292;23.146;2022-07-29T13:12:12;7.73;;;5.50;;
69569;SDS011;56781;42.292;23.146;2022-07-29T13:14:41;9.25;;;5.78;;
69569;SDS011;56781;42.292;23.146;2022-07-29T13:17:11;9.10;;;5.50;;
69569;SDS011;56781;42.292;23.146;2022-07-29T13:19:43;7.18;;;5.35;;
69569;SDS011;56781;42.292;23.146;2022-07-29T13:22:19;8.00;;;5.50;;
69569;SDS011;56781;42.292;23.146;2022-07-29T13:24:52;9.17;;;5.70;;
69569;SDS011;56781;42.292;23.146;2022-07-29T13:27:25;8.80;;;5.93;;
69569;SDS011;56781;42.292;23.146;2022-07-29T13:29:54;7.90;;;5.80;;
69569;SDS011;56781;42.292;23.146;2022-07-29T13:32:24;7.75;;;5.50;;
69569;SDS011;56781;42.292;23.146;2022-07-29T13:34:58;8.77;;;5.65;;
69569;SDS011;56781;42.292;23.146;2022-07-29T13:37:31;7.97;;;5.53;;
69569;SDS011;56781;42.292;23.146;2022-07-29T13:40:01;7.55;;;5.43;;
69569;SDS011;56781;42.292;23.146;2022-07-29T13:42:30;8.00;;;5.40;;
69569;SDS011;56781;42.292;23.146;2022-07-29T13:44:58;7.88;;;5.07;;
69569;SDS011;56781;42.292;23.146;2022-07-29T13:47:25;8.75;;;5.95;;
69569;SDS011;56781;42.292;23.146;2022-07-29T13:49:58;7.77;;;5.40;;
69569;SDS011;56781;42.292;23.146;2022-07-29T13:52:28;7.53;;;5.18;;
69569;SDS011;56781;42.292;23.146;2022-07-29T13:54:55;7.38;;;5.43;;
69569;SDS011;56781;42.292;23.146;2022-07-29T13:57:22;8.18;;;5.72;;
69569;SDS011;56781;42.292;23.146;2022-07-29T13:59:49;9.00;;;5.18;;
69569;SDS011;56781;42.292;23.146;2022-07-29T14:02:19;9.20;;;5.40;;
69569;SDS011;56781;42.292;23.146;2022-07-29T14:04:51;7.82;;;5.30;;
69569;SDS011;56781;42.292;23.146;2022-07-29T14:07:19;8.85;;;5.18;;
69569;SDS011;56781;42.292;23.146;2022-07-29T14:09:45;7.28;;;5.28;;
69569;SDS011;56781;42.292;23.146;2022-07-29T14:12:12;7.35;;;4.85;;
69569;SDS011;56781;42.292;23.146;2022-07-29T14:14:39;7.90;;;5.63;;
69569;SDS011;56781;42.292;23.146;2022-07-29T14:17:06;8.23;;;5.50;;
69569;SDS011;56781;42.292;23.146;2022-07-29T14:19:33;8.00;;;5.63;;
69569;SDS011;56781;42.292;23.146;2022-07-29T14:22:05;7.95;;;5.78;;
69569;SDS011;56781;42.292;23.146;2022-07-29T14:24:34;8.65;;;5.45;;
69569;SDS011;56781;42.292;23.146;2022-07-29T14:27:03;7.07;;;5.00;;
69569;SDS011;56781;42.292;23.146;2022-07-29T14:29:31;7.80;;;5.20;;
69569;SDS011;56781;42.292;23.146;2022-07-29T14:32:04;9.95;;;5.68;;
69569;SDS011;56781;42.292;23.146;2022-07-29T14:34:33;7.80;;;4.97;;
69569;SDS011;56781;42.292;23.146;2022-07-29T14:37:00;8.88;;;5.15;;
69569;SDS011;56781;42.292;23.146;2022-07-29T14:39:41;7.77;;;5.47;;
69569;SDS011;56781;42.292;23.146;2022-07-29T14:42:09;7.25;;;4.78;;
69569;SDS011;56781;42.292;23.146;2022-07-29T14:44:38;6.45;;;4.70;;
69569;SDS011;56781;42.292;23.146;2022-07-29T14:47:06;7.63;;;5.03;;
69569;SDS011;56781;42.292;23.146;2022-07-29T14:49:34;7.28;;;5.13;;
69569;SDS011;56781;42.292;23.146;2022-07-29T14:52:01;8.10;;;4.60;;
69569;SDS011;56781;42.292;23.146;2022-07-29T14:54:28;8.10;;;5.43;;
69569;SDS011;56781;42.292;23.146;2022-07-29T14:56:55;6.75;;;4.90;;
69569;SDS011;56781;42.292;23.146;2022-07-29T14:59:24;8.55;;;4.93;;
69569;SDS011;56781;42.292;23.146;2022-07-29T15:01:51;7.38;;;4.40;;
69569;SDS011;56781;42.292;23.146;2022-07-29T15:04:18;6.87;;;4.87;;
69569;SDS011;56781;42.292;23.146;2022-07-29T15:06:46;6.82;;;4.57;;
69569;SDS011;56781;42.292;23.146;2022-07-29T15:09:16;7.05;;;5.10;;
69569;SDS011;56781;42.292;23.146;2022-07-29T15:11:43;7.70;;;5.28;;
69569;SDS011;56781;42.292;23.146;2022-07-29T15:14:10;7.18;;;4.88;;
69569;SDS011;56781;42.292;23.146;2022-07-29T15:16:37;8.10;;;4.90;;
69569;SDS011;56781;42.292;23.146;2022-07-29T15:19:09;6.45;;;4.40;;
69569;SDS011;56781;42.292;23.146;2022-07-29T15:21:36;6.22;;;4.60;;
69569;SDS011;56781;42.292;23.146;2022-07-29T15:24:14;5.78;;;4.28;;
69569;SDS011;56781;42.292;23.146;2022-07-29T15:26:42;7.00;;;4.70;;
69569;SDS011;56781;42.292;23.146;2022-07-29T15:29:09;6.50;;;4.63;;
69569;SDS011;56781;42.292;23.146;2022-07-29T15:31:36;6.80;;;4.43;;
69569;SDS011;56781;42.292;23.146;2022-07-29T15:34:03;7.53;;;4.70;;